Chattanooga Airport (CHA)

 

Airport Diagram
Current Weather/Forecast (VFR Conditions)
METAR KCHA 262353Z 14005KT 10SM FEW055 BKN250 31/19 A3013 RMK AO2 SLP194 T03110189 10333 20306 55004 $
TAF KCHA 262332Z 2700/2724 00000KT P6SM SCT250 FM271300 03004KT P6SM SCT250 FM271800 25005KT P6SM BKN250

All Charts
General
Chart Name Download
AIRPORT DIAGRAM
TAKEOFF MINIMUMS
ALTERNATE MINIMUMS

Departures
Chart Name Download
CHATTANOOGA FIVE

Approaches
Chart Name Download
ILS OR LOC RWY 02
ILS OR LOC RWY 20
ILS RWY 20 (CAT II)
RNAV (GPS) RWY 02
RNAV (GPS) RWY 15
RNAV (GPS) RWY 20
RNAV (GPS) RWY 33
VOR RWY 33


Inbound Traffic (Arrivals)

No inbound traffic.


Outbound Traffic (Departures)

No outbound traffic.